Time;durP1;ratioP1;P1;durP2;ratioP2;P2;SDS_P1;SDS_P2;PMS_P1;PMS_P2;Temp;Humidity;BMP_temperature;BMP_pressure;BME280_temperature;BME280_humidity;BME280_pressure;Samples;Min_cycle;Max_cycle;Signal;HPM_P1;HPM_P2
2022/02/22 00:00:25;;;;;;;17.13;15.50;;;;;;;1.31;100.00;97589.28;2074678;28;20976;-72
2022/02/22 00:01:28;;;;;;;16.95;15.43;;;;;;;1.32;100.00;97580.31;2082390;28;20195;-72
2022/02/22 00:02:39;;;;;;;17.00;15.40;;;;;;;1.32;100.00;97586.38;2082428;28;20211;-72
2022/02/22 00:03:44;;;;;;;16.33;14.98;;;;;;;1.37;100.00;97583.69;2082531;28;20187;-71
2022/02/22 00:04:47;;;;;;;17.05;15.52;;;;;;;1.38;100.00;97584.47;2082993;28;20198;-73
2022/02/22 00:05:48;;;;;;;16.77;15.35;;;;;;;1.36;100.00;97584.75;2082645;28;20211;-73
2022/02/22 00:06:59;;;;;;;16.92;15.32;;;;;;;1.39;100.00;97583.41;2082295;28;20216;-72
2022/02/22 00:08:01;;;;;;;16.52;14.95;;;;;;;1.39;100.00;97580.78;2082493;28;20674;-72
2022/02/22 00:09:06;;;;;;;16.20;14.88;;;;;;;1.43;100.00;97592.34;2082982;28;20200;-72
2022/02/22 00:10:10;;;;;;;16.80;15.10;;;;;;;1.47;100.00;97587.31;2082310;28;20294;-72
2022/02/22 00:11:12;;;;;;;16.63;15.10;;;;;;;1.52;100.00;97590.69;2074675;28;20235;-72
2022/02/22 00:12:17;;;;;;;16.38;14.75;;;;;;;1.54;100.00;97588.56;2082381;28;20257;-72
2022/02/22 00:13:19;;;;;;;17.75;15.05;;;;;;;1.54;100.00;97583.31;2082944;28;20188;-72
2022/02/22 00:14:24;;;;;;;16.73;15.23;;;;;;;1.54;100.00;97587.78;2083107;28;20198;-72
2022/02/22 00:15:27;;;;;;;16.73;15.32;;;;;;;1.50;100.00;97590.19;2082348;28;20636;-72
2022/02/22 00:16:34;;;;;;;16.40;15.00;;;;;;;1.57;100.00;97592.53;2074898;28;20203;-72
2022/02/22 00:17:39;;;;;;;17.25;15.55;;;;;;;1.55;100.00;97589.34;2082404;28;20568;-72
2022/02/22 00:18:42;;;;;;;17.52;15.82;;;;;;;1.55;100.00;97594.63;2082933;28;20192;-72
2022/02/22 00:19:44;;;;;;;16.98;15.48;;;;;;;1.54;100.00;97588.56;2082884;28;20191;-72
2022/02/22 00:20:47;;;;;;;17.40;15.60;;;;;;;1.54;100.00;97599.09;2083033;28;20191;-72
2022/02/22 00:21:55;;;;;;;16.75;15.23;;;;;;;1.54;100.00;97593.84;2082512;28;20582;-72
2022/02/22 00:23:05;;;;;;;16.92;15.20;;;;;;;1.55;100.00;97590.13;2082827;28;20191;-72
2022/02/22 00:24:11;;;;;;;16.95;15.25;;;;;;;1.61;100.00;97604.03;2083065;28;20199;-73
2022/02/22 00:25:14;;;;;;;17.23;15.50;;;;;;;1.61;100.00;97596.94;2090370;28;20590;-72
2022/02/22 00:26:17;;;;;;;17.30;15.50;;;;;;;1.66;100.00;97596.91;2081930;28;20286;-72
2022/02/22 00:27:26;;;;;;;16.88;15.25;;;;;;;1.68;100.00;97592.16;2082175;28;20188;-72
2022/02/22 00:28:31;;;;;;;17.23;15.80;;;;;;;1.70;100.00;97603.19;2082786;28;20662;-72
2022/02/22 00:29:41;;;;;;;16.90;15.50;;;;;;;1.79;100.00;97595.50;2082885;28;20183;-72
2022/02/22 00:30:47;;;;;;;20.65;15.55;;;;;;;1.83;100.00;97601.00;2082278;28;20208;-72
2022/02/22 00:31:56;;;;;;;17.70;15.98;;;;;;;1.90;100.00;97604.88;2082760;28;20191;-72
2022/02/22 00:33:00;;;;;;;17.33;15.77;;;;;;;1.92;100.00;97609.88;2082758;28;20211;-72
2022/02/22 00:34:02;;;;;;;17.17;15.50;;;;;;;1.99;100.00;97611.09;2082842;28;20215;-71
2022/02/22 00:35:06;;;;;;;17.08;15.48;;;;;;;2.05;100.00;97609.22;2082806;28;20195;-72
2022/02/22 00:36:13;;;;;;;17.38;15.85;;;;;;;2.11;100.00;97616.03;2082185;28;20662;-72
2022/02/22 00:37:18;;;;;;;17.10;15.57;;;;;;;2.18;100.00;97616.50;2083032;28;20206;-71
2022/02/22 00:38:23;;;;;;;17.08;15.38;;;;;;;2.21;100.00;97618.56;2082041;28;20203;-72
2022/02/22 00:39:24;;;;;;;16.67;15.27;;;;;;;2.25;100.00;97616.16;2082075;28;20232;-72
2022/02/22 00:40:26;;;;;;;17.15;15.55;;;;;;;2.28;100.00;97622.72;2090236;28;20257;-72
2022/02/22 00:41:28;;;;;;;16.38;15.05;;;;;;;2.29;100.00;97616.41;2090293;28;20195;-72
2022/02/22 00:42:33;;;;;;;17.67;16.02;;;;;;;2.30;100.00;97613.47;2090209;28;20207;-72
2022/02/22 00:43:37;;;;;;;17.00;15.45;;;;;;;2.30;100.00;97615.34;2089853;28;20708;-72
2022/02/22 00:44:42;;;;;;;16.73;15.25;;;;;;;2.31;100.00;97616.91;2081959;28;20232;-72
2022/02/22 00:45:47;;;;;;;17.45;15.80;;;;;;;2.29;100.00;97611.13;2082080;28;20196;-72
2022/02/22 00:46:51;;;;;;;16.85;15.18;;;;;;;2.32;100.00;97613.19;2082654;28;20709;-72
2022/02/22 00:47:53;;;;;;;21.38;16.10;;;;;;;2.35;100.00;97607.41;2082233;28;20215;-72
2022/02/22 00:48:59;;;;;;;16.97;15.37;;;;;;;2.37;100.00;97611.31;2073850;28;20248;-72
2022/02/22 00:50:02;;;;;;;16.70;15.18;;;;;;;2.36;100.00;97616.88;2081964;28;20203;-72
2022/02/22 00:51:07;;;;;;;16.23;14.82;;;;;;;2.33;100.00;97614.78;2073716;28;20192;-72
2022/02/22 00:52:11;;;;;;;17.20;15.50;;;;;;;2.36;100.00;97617.66;2082102;28;20597;-72
2022/02/22 00:53:15;;;;;;;16.80;15.30;;;;;;;2.35;100.00;97618.72;2082651;28;20253;-72
2022/02/22 00:54:18;;;;;;;17.25;15.57;;;;;;;2.39;100.00;97621.56;2082661;28;20218;-72
2022/02/22 00:55:22;;;;;;;15.98;14.68;;;;;;;2.38;100.00;97614.72;2082736;28;20200;-72
2022/02/22 00:56:24;;;;;;;16.55;15.02;;;;;;;2.45;100.00;97623.09;2082465;28;20192;-73
2022/02/22 00:57:27;;;;;;;16.70;15.30;;;;;;;2.48;100.00;97619.91;2082541;28;20192;-72
2022/02/22 00:58:37;;;;;;;16.67;15.25;;;;;;;2.53;100.00;97625.13;2082613;28;20187;-72
2022/02/22 00:59:38;;;;;;;16.65;15.15;;;;;;;2.55;100.00;97617.72;2081820;28;20262;-72
2022/02/22 01:00:43;;;;;;;17.02;15.20;;;;;;;2.57;100.00;97620.84;2082099;28;20215;-72
2022/02/22 01:01:45;;;;;;;16.75;15.35;;;;;;;2.60;100.00;97630.81;2082588;28;20168;-72
2022/02/22 01:02:52;;;;;;;16.70;15.23;;;;;;;2.65;100.00;97627.34;2082635;28;20187;-72
2022/02/22 01:03:56;;;;;;;17.25;15.63;;;;;;;2.70;100.00;97628.09;2082652;28;20187;-73
2022/02/22 01:05:01;;;;;;;16.60;15.27;;;;;;;2.71;100.00;97627.03;2082415;28;20199;-72
2022/02/22 01:06:04;;;;;;;17.33;15.73;;;;;;;2.71;100.00;97626.25;2081664;28;20207;-72
2022/02/22 01:07:08;;;;;;;16.65;14.95;;;;;;;2.71;100.00;97627.03;2074308;28;20671;-72
2022/02/22 01:08:10;;;;;;;16.17;14.77;;;;;;;2.74;100.00;97626.47;2081258;28;20235;-72
2022/02/22 01:09:16;;;;;;;15.80;14.57;;;;;;;2.75;100.00;97628.03;2090006;28;20195;-72
2022/02/22 01:10:19;;;;;;;16.65;14.85;;;;;;;2.76;100.00;97621.69;2089742;28;20248;-72
2022/02/22 01:11:24;;;;;;;16.58;14.80;;;;;;;2.81;100.00;97626.13;2081713;28;20665;-72
2022/02/22 01:12:28;;;;;;;16.67;15.07;;;;;;;2.82;100.00;97625.84;2073573;28;20637;-72
2022/02/22 01:13:34;;;;;;;16.60;15.05;;;;;;;2.84;100.00;97626.34;2074364;28;20694;-72
2022/02/22 01:14:36;;;;;;;15.95;14.65;;;;;;;2.89;100.00;97632.63;2074458;28;20568;-73
2022/02/22 01:15:39;;;;;;;17.75;14.85;;;;;;;2.90;100.00;97637.63;2081898;28;20188;-72
2022/02/22 01:16:44;;;;;;;16.05;14.60;;;;;;;2.92;100.00;97643.38;2082439;28;20723;-72
2022/02/22 01:17:51;;;;;;;16.25;14.88;;;;;;;2.92;100.00;97642.59;2082420;28;20191;-72
2022/02/22 01:18:55;;;;;;;17.77;15.40;;;;;;;2.97;100.00;97642.56;2081760;28;20360;-72
2022/02/22 01:20:05;;;;;;;16.60;15.00;;;;;;;2.99;100.00;97640.41;2074404;28;20227;-71
2022/02/22 01:21:10;;;;;;;16.85;15.15;;;;;;;3.05;100.00;97644.56;2081375;28;20743;-72
2022/02/22 01:22:12;;;;;;;16.17;14.90;;;;;;;3.06;100.00;97648.78;2081795;28;20198;-72
2022/02/22 01:23:17;;;;;;;16.67;15.00;;;;;;;3.07;100.00;97645.06;2081802;28;20266;-72
2022/02/22 01:24:23;;;;;;;16.70;15.20;;;;;;;3.09;100.00;97643.72;2081545;28;20288;-72
2022/02/22 01:25:28;;;;;;;16.42;15.02;;;;;;;3.12;100.00;97652.91;2081479;28;20217;-73
2022/02/22 01:26:32;;;;;;;17.58;15.70;;;;;;;3.15;100.00;97649.72;2082371;28;20728;-72
2022/02/22 01:27:40;;;;;;;15.63;14.32;;;;;;;3.19;100.00;97652.56;2082259;28;20274;-71
2022/02/22 01:28:43;;;;;;;15.93;14.35;;;;;;;3.22;100.00;97647.53;2082349;28;20654;-72
2022/02/22 01:29:46;;;;;;;16.45;14.95;;;;;;;3.25;100.00;97651.44;2081942;28;20597;-72
2022/02/22 01:30:47;;;;;;;16.77;15.15;;;;;;;3.26;100.00;97660.91;2073859;28;20571;-71
2022/02/22 01:31:53;;;;;;;16.38;15.00;;;;;;;3.23;100.00;97653.56;2073774;28;20200;-72
2022/02/22 01:32:59;;;;;;;16.35;15.05;;;;;;;3.23;100.00;97654.38;2074311;28;20215;-71
2022/02/22 01:34:03;;;;;;;17.65;15.50;;;;;;;3.24;100.00;97650.66;2081670;28;20570;-71
2022/02/22 01:35:10;;;;;;;18.00;15.07;;;;;;;3.25;100.00;97660.13;2082190;28;20192;-72
2022/02/22 01:36:13;;;;;;;16.85;15.20;;;;;;;3.30;100.00;97665.34;2081016;28;20214;-72
2022/02/22 01:37:15;;;;;;;16.42;14.93;;;;;;;3.30;100.00;97670.63;2081954;28;20250;-73
2022/02/22 01:38:19;;;;;;;16.80;15.18;;;;;;;3.29;100.00;97674.28;2082505;28;20578;-71
2022/02/22 01:39:27;;;;;;;17.13;15.52;;;;;;;3.27;100.00;97671.16;2082418;28;20220;-72
2022/02/22 01:40:32;;;;;;;17.02;15.43;;;;;;;3.24;100.00;97670.97;2082323;28;20536;-72
2022/02/22 01:41:39;;;;;;;19.52;16.05;;;;;;;3.25;100.00;97670.66;2081514;28;20290;-72
2022/02/22 01:42:42;;;;;;;17.00;15.63;;;;;;;3.25;100.00;97672.53;2081504;28;20192;-72
2022/02/22 01:43:43;;;;;;;17.17;15.65;;;;;;;3.23;100.00;97667.53;2082481;28;20199;-72
2022/02/22 01:44:51;;;;;;;17.75;16.10;;;;;;;3.24;100.00;97671.75;2082340;28;20194;-72
2022/02/22 01:45:59;;;;;;;17.98;16.10;;;;;;;3.23;100.00;97675.44;2082159;28;20664;-72
2022/02/22 01:47:04;;;;;;;17.38;15.70;;;;;;;3.22;100.00;97675.72;2081822;28;20203;-72
2022/02/22 01:48:06;;;;;;;17.08;15.70;;;;;;;3.20;100.00;97672.56;2074233;28;20228;-72
2022/02/22 01:49:09;;;;;;;17.50;15.80;;;;;;;3.20;100.00;97677.84;2081436;28;20704;-72
2022/02/22 01:50:10;;;;;;;16.55;15.15;;;;;;;3.22;100.00;97675.72;2081740;28;20237;-72
2022/02/22 01:51:12;;;;;;;17.65;16.05;;;;;;;3.22;100.00;97679.16;2081728;28;20242;-72
2022/02/22 01:52:16;;;;;;;17.70;16.15;;;;;;;3.21;100.00;97682.81;2082374;28;20195;-72
2022/02/22 01:53:21;;;;;;;17.30;15.90;;;;;;;3.22;100.00;97681.00;2082160;28;20603;-72
2022/02/22 01:54:27;;;;;;;17.40;16.00;;;;;;;3.22;100.00;97681.00;2082304;28;20195;-72
2022/02/22 01:55:34;;;;;;;17.90;16.15;;;;;;;3.20;100.00;97678.63;2081642;28;20211;-72
2022/02/22 01:56:42;;;;;;;17.15;15.60;;;;;;;3.21;100.00;97685.47;2081596;28;20199;-72
2022/02/22 01:57:44;;;;;;;17.45;15.38;;;;;;;3.22;100.00;97686.28;2081790;28;20239;-71
2022/02/22 01:58:49;;;;;;;16.60;15.25;;;;;;;3.21;100.00;97688.09;2081702;28;20191;-71
2022/02/22 01:59:56;;;;;;;17.17;15.73;;;;;;;3.19;100.00;97682.34;2081667;28;20210;-72
2022/02/22 02:01:01;;;;;;;16.85;15.27;;;;;;;3.20;100.00;97685.75;2081603;28;20191;-72
2022/02/22 02:02:05;;;;;;;16.73;15.30;;;;;;;3.20;100.00;97689.16;2081795;28;20235;-72
2022/02/22 02:03:11;;;;;;;17.50;15.80;;;;;;;3.18;100.00;97687.88;2073952;28;20287;-72
2022/02/22 02:04:12;;;;;;;16.13;14.93;;;;;;;3.20;100.00;97688.38;2081735;28;20176;-71
2022/02/22 02:05:18;;;;;;;16.17;14.80;;;;;;;3.20;100.00;97686.53;2081471;28;20192;-72
2022/02/22 02:06:22;;;;;;;16.75;15.15;;;;;;;3.22;100.00;97692.31;2080883;28;20458;-72
2022/02/22 02:07:28;;;;;;;16.75;15.18;;;;;;;3.23;100.00;97685.22;2081567;28;20248;-72
2022/02/22 02:08:33;;;;;;;16.77;15.48;;;;;;;3.22;100.00;97694.19;2082293;28;20210;-72
2022/02/22 02:09:44;;;;;;;16.48;15.07;;;;;;;3.21;100.00;97696.00;2082168;28;20713;-72
2022/02/22 02:10:46;;;;;;;16.77;15.30;;;;;;;3.19;100.00;97692.88;2081524;28;20207;-72
2022/02/22 02:11:50;;;;;;;16.87;15.43;;;;;;;3.20;100.00;97688.38;2081571;28;20192;-71
2022/02/22 02:12:53;;;;;;;17.00;15.60;;;;;;;3.20;100.00;97696.28;2082244;28;20237;-72
2022/02/22 02:14:01;;;;;;;16.90;15.38;;;;;;;3.20;100.00;97691.03;2082171;28;20191;-72
2022/02/22 02:15:05;;;;;;;17.20;15.70;;;;;;;3.18;100.00;97693.16;2081759;28;20212;-72
2022/02/22 02:16:12;;;;;;;18.10;15.30;;;;;;;3.16;100.00;97690.81;2081475;28;20195;-72
2022/02/22 02:17:14;;;;;;;17.17;15.80;;;;;;;3.18;100.00;97691.31;2081693;28;20795;-72
2022/02/22 02:18:17;;;;;;;16.25;14.90;;;;;;;3.22;100.00;97700.22;2081663;28;20195;-72
2022/02/22 02:19:22;;;;;;;16.65;15.25;;;;;;;3.27;100.00;97702.00;2082712;28;20191;-71
2022/02/22 02:20:25;;;;;;;16.42;15.18;;;;;;;3.35;100.00;97709.28;2083418;28;20203;-72
2022/02/22 02:21:32;;;;;;;17.27;15.80;;;;;;;3.37;100.00;97709.78;2082666;28;20223;-72
2022/02/22 02:22:39;;;;;;;16.90;15.50;;;;;;;3.44;100.00;97720.78;2083267;28;20566;-72
2022/02/22 02:23:47;;;;;;;16.33;15.13;;;;;;;3.55;100.00;97713.53;2083497;28;20202;-72
2022/02/22 02:24:50;;;;;;;16.80;15.40;;;;;;;3.61;100.00;97720.31;2083196;28;20198;-72
2022/02/22 02:25:53;;;;;;;16.50;15.05;;;;;;;3.69;100.00;97717.06;2082756;28;20231;-72
2022/02/22 02:26:59;;;;;;;17.55;16.02;;;;;;;3.69;100.00;97722.31;2083221;28;20202;-72
2022/02/22 02:28:03;;;;;;;16.52;15.25;;;;;;;3.71;100.00;97719.41;2083245;28;20219;-73
2022/02/22 02:29:08;;;;;;;16.75;15.30;;;;;;;3.76;100.00;97722.75;2082785;28;20211;-72
2022/02/22 02:30:15;;;;;;;17.02;15.63;;;;;;;3.77;100.00;97726.97;2091287;28;20206;-72
2022/02/22 02:31:17;;;;;;;16.40;15.00;;;;;;;3.78;100.00;97722.47;2090916;28;20201;-72
2022/02/22 02:32:20;;;;;;;16.50;14.98;;;;;;;3.78;100.00;97728.53;2083047;28;20241;-72
2022/02/22 02:33:26;;;;;;;17.98;16.17;;;;;;;3.82;100.00;97729.56;2083611;28;20625;-72
2022/02/22 02:34:31;;;;;;;17.20;15.57;;;;;;;3.82;100.00;97729.56;2090814;28;20713;-73
2022/02/22 02:35:38;;;;;;;16.90;15.57;;;;;;;3.80;100.00;97734.31;2083749;28;20192;-72
2022/02/22 02:36:43;;;;;;;16.30;15.10;;;;;;;3.81;100.00;97732.44;2082930;28;20230;-72
2022/02/22 02:37:56;;;;;;;16.50;15.20;;;;;;;3.81;100.00;97730.59;2076233;28;20200;-72
2022/02/22 02:38:58;;;;;;;16.08;14.80;;;;;;;3.86;100.00;97735.81;2083174;28;20195;-72
2022/02/22 02:40:00;;;;;;;17.00;15.57;;;;;;;3.86;100.00;97740.31;2083375;28;20196;-72
2022/02/22 02:41:06;;;;;;;15.95;14.65;;;;;;;3.91;100.00;97745.53;2083068;28;20204;-72
2022/02/22 02:42:12;;;;;;;16.45;15.00;;;;;;;3.93;100.00;97743.38;2083929;28;20172;-72
2022/02/22 02:43:17;;;;;;;16.17;14.77;;;;;;;3.98;100.00;97745.94;2082971;28;20210;-72
2022/02/22 02:44:23;;;;;;;16.20;14.90;;;;;;;3.98;100.00;97751.22;2075368;28;20200;-72
2022/02/22 02:45:27;;;;;;;16.10;14.90;;;;;;;4.03;100.00;97753.78;2083299;28;20191;-72
2022/02/22 02:46:29;;;;;;;16.15;14.57;;;;;;;4.05;100.00;97753.50;2083855;28;20191;-72
2022/02/22 02:47:38;;;;;;;15.40;14.25;;;;;;;4.11;100.00;97755.78;2083769;28;20188;-72
2022/02/22 02:48:41;;;;;;;16.00;14.70;;;;;;;4.14;100.00;97760.50;2083781;28;20673;-72
2022/02/22 02:49:46;;;;;;;17.13;15.68;;;;;;;4.16;100.00;97757.56;2083595;28;20275;-72
2022/02/22 02:50:50;;;;;;;16.67;15.32;;;;;;;4.20;100.00;97761.22;2083528;28;20650;-72
2022/02/22 02:51:52;;;;;;;16.00;14.93;;;;;;;4.25;100.00;97763.75;2083119;28;20226;-72
2022/02/22 02:52:56;;;;;;;15.75;14.55;;;;;;;4.25;100.00;97761.91;2083581;28;20615;-72
2022/02/22 02:54:01;;;;;;;16.33;15.00;;;;;;;4.27;100.00;97788.03;2091053;28;20199;-72
2022/02/22 02:55:04;;;;;;;16.60;15.10;;;;;;;4.36;100.00;97778.41;2090711;28;20288;-72
2022/02/22 02:56:09;;;;;;;17.15;15.43;;;;;;;4.39;100.00;97772.53;2083508;28;20721;-73
2022/02/22 02:57:14;;;;;;;16.80;15.27;;;;;;;4.36;100.00;97778.41;2083107;28;20223;-72
2022/02/22 02:58:22;;;;;;;16.10;14.80;;;;;;;4.37;100.00;97779.97;2082920;28;20568;-71
2022/02/22 02:59:27;;;;;;;16.10;15.00;;;;;;;4.38;100.00;97786.81;2083189;28;20767;-72
2022/02/22 03:00:29;;;;;;;16.20;15.00;;;;;;;4.43;100.00;97776.19;2083172;28;20204;-72
2022/02/22 03:01:36;;;;;;;17.00;15.48;;;;;;;4.42;100.00;97779.88;2082745;28;20211;-72
2022/02/22 03:02:42;;;;;;;16.15;14.80;;;;;;;4.43;100.00;97781.47;2083262;28;20685;-72
2022/02/22 03:03:46;;;;;;;16.52;15.13;;;;;;;4.44;100.00;97785.69;2082899;28;20674;-72
2022/02/22 03:04:58;;;;;;;16.15;14.90;;;;;;;4.46;100.00;97786.16;2083518;28;20669;-72
2022/02/22 03:05:59;;;;;;;16.75;15.18;;;;;;;4.48;100.00;97793.81;2082987;28;20654;-72
2022/02/22 03:07:04;;;;;;;16.70;15.27;;;;;;;4.46;100.00;97790.66;2082817;28;20211;-72
2022/02/22 03:08:12;;;;;;;17.90;15.90;;;;;;;4.46;100.00;97796.72;2075004;28;20211;-72
2022/02/22 03:09:15;;;;;;;16.75;15.60;;;;;;;4.51;100.00;97791.34;2082945;28;20561;-72
2022/02/22 03:10:22;;;;;;;16.65;15.45;;;;;;;4.50;100.00;97791.66;2090928;28;20199;-72
2022/02/22 03:11:24;;;;;;;16.15;14.88;;;;;;;4.51;100.00;97796.63;2090700;28;20263;-72
2022/02/22 03:12:30;;;;;;;16.13;14.82;;;;;;;4.50;100.00;97795.06;2083374;28;20192;-72
2022/02/22 03:13:33;;;;;;;16.13;14.82;;;;;;;4.53;100.00;97801.66;2083038;28;20211;-72
2022/02/22 03:14:35;;;;;;;16.20;14.90;;;;;;;4.58;100.00;97803.44;2075040;28;20633;-72
2022/02/22 03:15:39;;;;;;;15.45;14.45;;;;;;;4.56;100.00;97806.34;2082851;28;20215;-72
2022/02/22 03:16:47;;;;;;;16.88;15.02;;;;;;;4.56;100.00;97827.50;2083283;28;20196;-72
2022/02/22 03:17:54;;;;;;;15.98;14.70;;;;;;;4.58;100.00;97814.78;2083308;28;20199;-72
2022/02/22 03:19:02;;;;;;;16.13;15.02;;;;;;;4.60;100.00;97807.34;2083267;28;20187;-73
2022/02/22 03:20:05;;;;;;;16.17;14.85;;;;;;;4.61;100.00;97808.16;2083376;28;20238;-72
2022/02/22 03:21:08;;;;;;;16.20;14.77;;;;;;;4.62;100.00;97804.44;2082892;28;20215;-72
2022/02/22 03:22:14;;;;;;;15.90;14.80;;;;;;;4.61;100.00;97808.94;2082919;28;20196;-72
2022/02/22 03:23:25;;;;;;;16.25;14.95;;;;;;;4.57;100.00;97828.28;2082732;28;20183;-72
2022/02/22 03:24:28;;;;;;;15.93;14.63;;;;;;;4.59;100.00;97807.63;2083480;28;20188;-72
2022/02/22 03:25:35;;;;;;;15.93;14.73;;;;;;;4.60;100.00;97832.97;2083313;28;20233;-72
2022/02/22 03:26:37;;;;;;;15.55;14.50;;;;;;;4.57;100.00;97799.22;2067183;28;20250;-72
2022/02/22 03:27:41;;;;;;;15.52;14.18;;;;;;;4.54;100.00;97804.00;2067056;28;20189;-72
2022/02/22 03:28:42;;;;;;;15.63;14.63;;;;;;;4.54;100.00;97819.06;2066912;28;20221;-71
2022/02/22 03:29:51;;;;;;;16.58;15.15;;;;;;;4.50;100.00;97818.84;2066553;28;20619;-72
2022/02/22 03:30:55;;;;;;;15.70;14.60;;;;;;;4.51;100.00;97830.97;2066067;28;20251;-72
2022/02/22 03:32:01;;;;;;;16.38;15.13;;;;;;;4.51;100.00;97814.34;2066346;28;20185;-72
2022/02/22 03:33:08;;;;;;;16.08;14.88;;;;;;;4.47;100.00;97822.06;2067014;28;20173;-72
2022/02/22 03:34:11;;;;;;;16.15;14.77;;;;;;;4.46;100.00;97802.00;2066553;28;20201;-72
2022/02/22 03:35:14;;;;;;;16.50;14.95;;;;;;;4.46;100.00;97817.06;2066595;28;20200;-72
2022/02/22 03:36:23;;;;;;;17.42;15.70;;;;;;;4.42;100.00;97837.19;2065723;28;20668;-72
2022/02/22 03:37:26;;;;;;;16.67;15.10;;;;;;;4.44;100.00;97819.22;2066286;28;20208;-72
2022/02/22 03:38:36;;;;;;;16.33;14.93;;;;;;;4.42;100.00;97827.41;2066993;28;20189;-72
2022/02/22 03:39:39;;;;;;;16.40;15.05;;;;;;;4.38;100.00;97833.56;2067142;28;20219;-72
2022/02/22 03:40:44;;;;;;;16.45;15.10;;;;;;;4.38;100.00;97821.16;2066749;28;20224;-71
2022/02/22 03:41:45;;;;;;;15.57;14.48;;;;;;;4.36;100.00;97828.56;2058551;28;20209;-72
2022/02/22 03:42:52;;;;;;;16.50;15.00;;;;;;;4.35;100.00;97828.88;2066470;28;20193;-72
2022/02/22 03:43:59;;;;;;;16.25;14.95;;;;;;;4.34;100.00;97828.06;2066763;28;20208;-72
2022/02/22 03:45:02;;;;;;;17.05;15.68;;;;;;;4.29;100.00;97828.13;2074239;28;20651;-72
2022/02/22 03:46:05;;;;;;;16.35;15.05;;;;;;;4.22;100.00;97822.41;2065914;28;20299;-72
2022/02/22 03:47:09;;;;;;;16.77;15.48;;;;;;;4.25;100.00;97842.97;2066261;28;20185;-72
2022/02/22 03:48:11;;;;;;;16.95;15.75;;;;;;;4.21;100.00;97826.13;2066844;28;20204;-72
2022/02/22 03:49:15;;;;;;;15.80;14.60;;;;;;;4.21;100.00;97832.19;2066392;28;20220;-72
2022/02/22 03:50:18;;;;;;;16.67;15.30;;;;;;;4.21;100.00;97841.97;2066317;28;20619;-72
2022/02/22 03:51:26;;;;;;;16.48;15.15;;;;;;;4.22;100.00;97835.63;2066370;28;20574;-72
2022/02/22 03:52:30;;;;;;;16.90;15.20;;;;;;;4.21;100.00;97840.13;2066793;28;20201;-72
2022/02/22 03:53:38;;;;;;;16.55;15.35;;;;;;;4.19;100.00;97842.25;2066435;28;20224;-72
2022/02/22 03:54:40;;;;;;;16.88;15.55;;;;;;;4.18;100.00;97853.91;2058823;28;20229;-72
2022/02/22 03:55:44;;;;;;;15.95;14.77;;;;;;;4.19;100.00;97854.69;2058235;28;20757;-72
2022/02/22 03:56:48;;;;;;;16.65;15.23;;;;;;;4.18;100.00;97858.38;2058475;28;20672;-73
2022/02/22 03:57:52;;;;;;;17.00;15.60;;;;;;;4.13;100.00;97861.06;2058323;28;20770;-72
2022/02/22 03:58:59;;;;;;;17.90;16.38;;;;;;;4.15;100.00;97874.78;2065732;28;20216;-72
2022/02/22 04:00:01;;;;;;;16.92;15.52;;;;;;;4.08;100.00;97867.19;2066781;28;20265;-72
2022/02/22 04:01:12;;;;;;;16.30;15.30;;;;;;;4.10;100.00;97877.50;2066797;28;20189;-73
2022/02/22 04:02:13;;;;;;;17.40;15.88;;;;;;;4.08;100.00;97888.31;2066706;28;20193;-72
2022/02/22 04:03:16;;;;;;;16.50;15.30;;;;;;;4.04;100.00;97884.66;2066839;28;20228;-72
2022/02/22 04:04:20;;;;;;;16.52;15.32;;;;;;;4.04;100.00;97878.59;2066004;28;20204;-72
2022/02/22 04:05:25;;;;;;;16.80;15.50;;;;;;;4.04;100.00;97889.16;2065493;28;20675;-72
2022/02/22 04:06:28;;;;;;;16.20;15.10;;;;;;;4.02;100.00;97884.19;2065678;28;20307;-71
2022/02/22 04:07:37;;;;;;;16.33;15.07;;;;;;;3.93;100.00;97896.41;2066241;28;20205;-72
2022/02/22 04:08:41;;;;;;;17.13;15.60;;;;;;;3.91;100.00;97893.28;2059194;28;20657;-72
2022/02/22 04:09:42;;;;;;;15.68;14.48;;;;;;;3.86;100.00;97907.31;2058158;28;20664;-72
2022/02/22 04:10:45;;;;;;;15.02;14.00;;;;;;;3.85;100.00;97903.09;2066090;28;20262;-72
2022/02/22 04:11:46;;;;;;;15.52;14.40;;;;;;;3.82;100.00;97919.50;2066717;28;20193;-75
2022/02/22 04:12:52;;;;;;;15.35;14.35;;;;;;;3.84;100.00;97909.44;2066653;28;20266;-76
2022/02/22 04:13:56;;;;;;;14.88;13.98;;;;;;;3.84;100.00;97914.72;2066669;28;20197;-75
2022/02/22 04:15:00;;;;;;;15.40;14.40;;;;;;;3.81;100.00;97922.38;2066576;28;20201;-76
2022/02/22 04:16:02;;;;;;;15.10;14.20;;;;;;;3.84;100.00;97917.34;2065978;28;20197;-76
2022/02/22 04:17:04;;;;;;;15.45;14.50;;;;;;;3.82;100.00;97927.41;2066323;28;20734;-76
2022/02/22 04:18:09;;;;;;;15.35;14.13;;;;;;;3.78;100.00;97929.00;2066054;28;20217;-75
2022/02/22 04:19:10;;;;;;;14.90;13.90;;;;;;;3.82;100.00;97924.78;2066230;28;20294;-76
2022/02/22 04:20:15;;;;;;;15.55;14.55;;;;;;;3.78;100.00;97917.69;2065849;28;20196;-76
2022/02/22 04:21:21;;;;;;;15.60;14.60;;;;;;;3.77;100.00;97931.94;2058169;28;20229;-75
2022/02/22 04:22:23;;;;;;;15.20;14.30;;;;;;;3.79;100.00;97937.72;2065924;28;20228;-76
2022/02/22 04:23:26;;;;;;;14.35;13.45;;;;;;;3.84;100.00;97938.47;2066079;28;20660;-75
2022/02/22 04:24:29;;;;;;;14.88;13.60;;;;;;;3.83;100.00;97942.16;2066027;28;20224;-76
2022/02/22 04:25:34;;;;;;;14.57;13.68;;;;;;;3.76;100.00;97952.25;2066029;28;20547;-76
2022/02/22 04:26:38;;;;;;;14.55;13.65;;;;;;;3.79;100.00;97945.63;2082053;28;20215;-76
2022/02/22 04:27:45;;;;;;;14.80;13.85;;;;;;;3.77;100.00;97951.19;2081680;28;20203;-75
2022/02/22 04:28:47;;;;;;;14.77;13.88;;;;;;;3.75;100.00;97961.25;2082558;28;20227;-75
2022/02/22 04:29:49;;;;;;;15.32;14.10;;;;;;;3.74;100.00;97948.34;2082211;28;20210;-76
2022/02/22 04:30:51;;;;;;;14.50;13.60;;;;;;;3.74;100.00;97954.41;2082176;28;20191;-75
2022/02/22 04:31:56;;;;;;;15.32;14.23;;;;;;;3.70;100.00;97956.00;2082301;28;20203;-76
2022/02/22 04:33:02;;;;;;;15.10;14.10;;;;;;;3.66;100.00;97962.91;2082765;28;20586;-76
2022/02/22 04:34:05;;;;;;;15.07;14.13;;;;;;;3.67;100.00;97953.94;2082651;28;20216;-75
2022/02/22 04:35:11;;;;;;;15.07;13.98;;;;;;;3.70;100.00;97963.91;2082773;28;20674;-75
2022/02/22 04:36:19;;;;;;;15.30;14.40;;;;;;;3.73;100.00;97965.97;2081965;28;20319;-76
2022/02/22 04:37:20;;;;;;;14.77;13.98;;;;;;;3.65;100.00;97959.47;2082235;28;20200;-76
2022/02/22 04:38:24;;;;;;;15.27;14.38;;;;;;;3.64;100.00;97965.78;2083034;28;20386;-75
2022/02/22 04:39:30;;;;;;;15.35;14.25;;;;;;;3.63;100.00;97958.16;2082100;28;20624;-76
2022/02/22 04:40:38;;;;;;;15.23;14.32;;;;;;;3.58;100.00;97959.00;2082296;28;20218;-76
2022/02/22 04:41:41;;;;;;;15.15;14.20;;;;;;;3.56;100.00;97968.25;2082702;28;20573;-76
2022/02/22 04:42:49;;;;;;;15.70;14.50;;;;;;;3.57;100.00;97964.56;2081676;28;20195;-75
2022/02/22 04:43:53;;;;;;;15.10;14.20;;;;;;;3.57;100.00;97980.41;2082852;28;20184;-75
2022/02/22 04:44:55;;;;;;;15.70;14.70;;;;;;;3.58;100.00;97992.50;2082777;28;20291;-75
2022/02/22 04:45:59;;;;;;;15.73;14.82;;;;;;;3.59;100.00;97978.25;2082727;28;20198;-76
2022/02/22 04:47:01;;;;;;;15.45;14.60;;;;;;;3.61;100.00;97981.41;2082726;28;20229;-75
2022/02/22 04:48:07;;;;;;;15.80;14.80;;;;;;;3.61;100.00;97981.41;2082596;28;20203;-75
2022/02/22 04:49:13;;;;;;;15.95;14.95;;;;;;;3.54;100.00;97975.66;2081987;28;20590;-75
2022/02/22 04:50:19;;;;;;;15.57;14.57;;;;;;;3.52;100.00;97981.22;2082307;28;20179;-76
2022/02/22 04:51:22;;;;;;;16.17;15.18;;;;;;;3.43;100.00;97997.91;2082341;28;20579;-75
2022/02/22 04:52:25;;;;;;;15.60;14.70;;;;;;;3.41;100.00;97987.63;2082635;28;20184;-76
2022/02/22 04:53:29;;;;;;;15.90;14.90;;;;;;;3.39;100.00;98000.31;2082645;28;20438;-75
2022/02/22 04:54:38;;;;;;;14.80;13.90;;;;;;;3.37;100.00;98008.47;2081867;28;20208;-76
2022/02/22 04:55:46;;;;;;;15.40;14.40;;;;;;;3.34;100.00;98006.38;2081881;28;20203;-75
2022/02/22 04:56:47;;;;;;;15.13;14.23;;;;;;;3.34;100.00;98014.31;2082609;28;20662;-75